createdAt,value
2022-08-05T00:02:22.574Z,2.30
2022-08-05T00:04:55.558Z,2.50
2022-08-05T00:07:58.970Z,2.30
2022-08-05T00:10:10.896Z,2.05
2022-08-05T00:12:56.763Z,2.28
2022-08-05T00:15:57.488Z,2.42
2022-08-05T00:18:21.866Z,2.55
2022-08-05T00:20:50.205Z,2.38
2022-08-05T00:23:17.425Z,2.53
2022-08-05T00:26:04.973Z,2.00
2022-08-05T00:28:32.018Z,2.58
2022-08-05T00:31:04.523Z,1.98
2022-08-05T00:34:56.059Z,2.63
2022-08-05T00:37:20.096Z,2.13
2022-08-05T00:39:13.498Z,2.70
2022-08-05T00:41:54.923Z,1.93
2022-08-05T00:44:30.656Z,2.30
2022-08-05T00:47:01.655Z,2.03
2022-08-05T00:49:32.543Z,2.10
2022-08-05T00:52:00.209Z,1.90
2022-08-05T00:54:27.917Z,2.20
2022-08-05T00:56:57.010Z,2.20
2022-08-05T00:59:23.996Z,2.60
2022-08-05T01:01:51.483Z,2.00
2022-08-05T01:04:20.197Z,2.22
2022-08-05T01:06:53.591Z,1.70
2022-08-05T01:09:22.792Z,1.75
2022-08-05T01:11:52.066Z,2.45
2022-08-05T01:14:47.646Z,1.90
2022-08-05T01:17:25.831Z,2.00
2022-08-05T01:20:09.964Z,2.17
2022-08-05T01:22:46.964Z,1.70
2022-08-05T01:25:40.610Z,1.60
2022-08-05T01:28:50.371Z,1.65
2022-08-05T01:31:34.561Z,1.17
2022-08-05T01:34:20.194Z,1.58
2022-08-05T01:36:54.844Z,1.55
2022-08-05T01:39:45.755Z,1.90
2022-08-05T01:42:15.316Z,1.90
2022-08-05T01:44:44.182Z,1.95
2022-08-05T01:47:14.999Z,1.85
2022-08-05T01:50:01.475Z,1.73
2022-08-05T01:52:32.246Z,1.88
2022-08-05T01:55:04.363Z,1.90
2022-08-05T01:58:10.638Z,1.48
2022-08-05T02:00:30.054Z,1.52
2022-08-05T02:03:07.281Z,2.22
2022-08-05T02:05:53.509Z,1.63
2022-08-05T02:08:30.755Z,1.80
2022-08-05T02:11:14.057Z,1.70
2022-08-05T02:13:55.210Z,1.40
2022-08-05T02:16:34.667Z,1.85
2022-08-05T02:19:11.843Z,1.63
2022-08-05T02:21:52.636Z,1.63
2022-08-05T02:24:25.034Z,1.90
2022-08-05T02:26:56.496Z,2.10
2022-08-05T02:29:59.608Z,1.98
2022-08-05T02:32:23.634Z,1.98
2022-08-05T02:35:02.652Z,2.00
2022-08-05T02:37:47.710Z,2.00
2022-08-05T02:40:23.011Z,2.30
2022-08-05T02:42:54.187Z,2.05
2022-08-05T02:45:24.489Z,1.65
2022-08-05T02:48:07.325Z,2.22
2022-08-05T02:50:45.992Z,2.25
2022-08-05T02:53:19.168Z,1.98
2022-08-05T02:55:59.551Z,2.20
2022-08-05T02:58:29.982Z,2.17
2022-08-05T03:01:00.858Z,1.90
2022-08-05T03:03:33.829Z,2.00
2022-08-05T03:06:57.089Z,2.13
2022-08-05T03:08:52.291Z,1.67
2022-08-05T03:11:56.900Z,1.65
2022-08-05T03:14:13.468Z,1.80
2022-08-05T03:16:41.172Z,1.60
2022-08-05T03:19:17.434Z,1.92
2022-08-05T03:21:55.882Z,1.83
2022-08-05T03:24:29.911Z,1.80
2022-08-05T03:26:58.976Z,1.60
2022-08-05T03:29:46.046Z,1.70
2022-08-05T03:32:15.417Z,1.30
2022-08-05T03:34:51.009Z,1.42
2022-08-05T03:37:20.965Z,1.55
2022-08-05T03:40:01.588Z,1.83
2022-08-05T03:42:32.298Z,1.20
2022-08-05T03:45:01.827Z,1.65
2022-08-05T03:47:47.524Z,1.70
2022-08-05T03:50:16.205Z,1.65
2022-08-05T03:55:00.134Z,1.80
2022-08-05T03:56:11.679Z,1.77
2022-08-05T03:58:46.987Z,1.50
2022-08-05T04:01:16.405Z,2.08
2022-08-05T04:04:08.823Z,2.00
2022-08-05T04:06:38.092Z,2.33
2022-08-05T04:09:08.498Z,1.90
2022-08-05T04:11:50.869Z,1.60
2022-08-05T04:14:19.801Z,1.73
2022-08-05T04:16:59.359Z,1.88
2022-08-05T04:19:27.672Z,2.55
2022-08-05T04:22:09.882Z,2.22
2022-08-05T04:24:44.453Z,1.88
2022-08-05T04:27:13.464Z,2.08
2022-08-05T04:29:41.500Z,2.38
2022-08-05T04:32:09.759Z,2.30
2022-08-05T04:34:42.683Z,1.60
2022-08-05T04:37:10.494Z,2.10
2022-08-05T04:39:37.826Z,2.45
2022-08-05T04:42:06.481Z,2.15
2022-08-05T04:44:33.612Z,2.28
2022-08-05T04:47:08.780Z,2.22
2022-08-05T04:50:01.320Z,2.22
2022-08-05T04:52:27.713Z,2.20
2022-08-05T04:54:57.473Z,2.10
2022-08-05T04:57:29.219Z,1.80
2022-08-05T05:00:06.725Z,2.25
2022-08-05T05:02:36.304Z,1.95
2022-08-05T05:05:26.410Z,2.20
2022-08-05T05:07:56.695Z,1.92
2022-08-05T05:10:29.896Z,2.47
2022-08-05T05:12:57.201Z,1.65
2022-08-05T05:15:57.108Z,2.08
2022-08-05T05:18:28.337Z,1.92
2022-08-05T05:20:58.748Z,1.57
2022-08-05T05:23:25.891Z,1.67
2022-08-05T05:25:52.888Z,2.05
2022-08-05T05:28:19.747Z,1.95
2022-08-05T05:30:49.760Z,1.55
2022-08-05T05:33:17.624Z,1.67
2022-08-05T05:35:50.744Z,1.70
2022-08-05T05:38:22.736Z,1.48
2022-08-05T05:43:54.766Z,1.52
2022-08-05T05:46:15.872Z,1.27
2022-08-05T05:48:44.264Z,1.50
2022-08-05T05:51:15.767Z,1.80
2022-08-05T05:53:54.532Z,1.67
2022-08-05T05:56:32.543Z,2.08
2022-08-05T05:59:06.519Z,1.63
2022-08-05T06:01:57.774Z,1.65
2022-08-05T06:04:25.133Z,1.73
2022-08-05T06:06:52.133Z,1.45
2022-08-05T06:09:26.607Z,1.40
2022-08-05T06:12:06.759Z,1.42
2022-08-05T06:14:36.668Z,1.60
2022-08-05T06:17:32.024Z,1.67
2022-08-05T06:19:57.140Z,1.65
2022-08-05T06:22:34.809Z,1.83
2022-08-05T06:25:25.339Z,1.95
2022-08-05T06:28:10.481Z,1.90
2022-08-05T06:30:41.883Z,2.03
2022-08-05T06:33:09.923Z,1.58
2022-08-05T06:36:05.738Z,2.22
2022-08-05T06:38:36.740Z,1.60
2022-08-05T06:41:05.390Z,1.75
2022-08-05T06:43:58.457Z,1.50
2022-08-05T06:46:22.065Z,1.33
2022-08-05T06:48:59.230Z,1.33
2022-08-05T06:51:29.502Z,1.02
2022-08-05T06:53:59.051Z,1.35
2022-08-05T06:56:27.130Z,1.38
2022-08-05T06:58:55.201Z,1.40
2022-08-05T07:01:22.660Z,1.50
2022-08-05T07:03:50.112Z,1.45
2022-08-05T07:06:17.434Z,1.30
2022-08-05T07:08:51.858Z,1.88
2022-08-05T07:11:25.467Z,1.73
2022-08-05T07:14:20.211Z,1.38
2022-08-05T07:17:56.863Z,1.50
2022-08-05T07:22:29.119Z,1.50
2022-08-05T07:25:24.079Z,1.60
2022-08-05T07:27:58.445Z,1.50
2022-08-05T07:30:34.735Z,1.30
2022-08-05T07:33:09.967Z,1.73
2022-08-05T07:35:56.817Z,1.50
2022-08-05T07:38:33.409Z,1.38
2022-08-05T07:42:07.128Z,1.17
2022-08-05T07:43:59.209Z,1.58
2022-08-05T07:46:27.830Z,1.30
2022-08-05T07:49:02.903Z,1.50
2022-08-05T07:51:40.856Z,1.33
2022-08-05T07:54:23.288Z,1.20
2022-08-05T07:57:14.860Z,1.25
2022-08-05T07:59:41.089Z,1.05
2022-08-05T08:02:15.860Z,1.17
2022-08-05T08:04:49.367Z,0.90
2022-08-05T08:07:21.954Z,1.20
2022-08-05T08:09:50.319Z,0.98
2022-08-05T08:12:35.429Z,1.33
2022-08-05T08:15:09.775Z,0.82
2022-08-05T08:20:43.943Z,0.57
2022-08-05T08:23:04.003Z,1.00
2022-08-05T08:26:00.086Z,0.80
2022-08-05T08:28:36.910Z,0.80
2022-08-05T08:31:06.541Z,1.25
2022-08-05T08:33:37.654Z,0.80
2022-08-05T08:36:38.496Z,1.10
2022-08-05T08:38:55.967Z,0.90
2022-08-05T08:41:26.229Z,1.45
2022-08-05T08:45:23.841Z,1.17
2022-08-05T08:47:03.756Z,1.00
2022-08-05T08:50:11.312Z,0.88
2022-08-05T08:52:42.009Z,0.90
2022-08-05T08:55:19.468Z,0.80
2022-08-05T08:58:02.958Z,0.77
2022-08-05T09:00:31.205Z,1.00
2022-08-05T09:02:59.136Z,1.13
2022-08-05T09:05:38.495Z,0.80
2022-08-05T09:08:13.990Z,0.93
2022-08-05T09:10:46.879Z,0.90
2022-08-05T09:13:15.420Z,1.33
2022-08-05T09:15:42.935Z,0.80
2022-08-05T09:18:10.467Z,1.63
2022-08-05T09:20:43.746Z,0.93
2022-08-05T09:23:18.521Z,0.90
2022-08-05T09:26:20.834Z,0.93
2022-08-05T09:28:49.406Z,0.63
2022-08-05T09:31:43.748Z,1.05
2022-08-05T09:34:07.039Z,0.73
2022-08-05T09:36:56.173Z,0.52
2022-08-05T09:39:42.031Z,0.98
2022-08-05T09:42:24.151Z,0.77
2022-08-05T09:44:57.448Z,1.00
2022-08-05T09:47:48.019Z,1.02
2022-08-05T09:50:43.614Z,0.77
2022-08-05T09:53:07.124Z,0.93
2022-08-05T09:55:56.833Z,0.80
2022-08-05T09:58:24.236Z,0.73
2022-08-05T10:01:13.555Z,0.88
2022-08-05T10:04:03.602Z,0.55
2022-08-05T10:06:32.088Z,0.82
2022-08-05T10:09:27.824Z,0.57
2022-08-05T10:12:18.599Z,0.52
2022-08-05T10:15:20.184Z,0.50
2022-08-05T10:18:04.898Z,0.85
2022-08-05T10:20:34.680Z,0.75
2022-08-05T10:23:01.928Z,0.65
2022-08-05T10:25:30.470Z,0.88
2022-08-05T10:28:13.381Z,0.47
2022-08-05T10:36:04.514Z,0.70
2022-08-05T10:38:33.429Z,0.70
2022-08-05T10:41:25.409Z,1.02
2022-08-05T10:44:18.188Z,0.85
2022-08-05T10:46:53.866Z,1.08
2022-08-05T10:49:27.486Z,1.23
2022-08-05T10:52:03.344Z,0.82
2022-08-05T10:55:02.607Z,0.90
2022-08-05T10:57:33.668Z,1.20
2022-08-05T11:00:12.143Z,1.10
2022-08-05T11:03:25.508Z,0.90
2022-08-05T11:06:16.115Z,1.02
2022-08-05T11:09:16.812Z,0.93
2022-08-05T11:11:53.425Z,0.90
2022-08-05T11:15:00.922Z,0.63
2022-08-05T11:18:00.520Z,0.93
2022-08-05T11:20:37.421Z,0.93
2022-08-05T11:23:49.887Z,0.73
2022-08-05T11:26:28.014Z,0.85
2022-08-05T11:28:56.835Z,0.77
2022-08-05T11:31:57.290Z,0.75
2022-08-05T11:34:39.699Z,0.80
2022-08-05T11:38:29.841Z,0.85
2022-08-05T11:40:00.284Z,0.93
2022-08-05T11:42:40.326Z,0.90
2022-08-05T11:45:23.028Z,1.10
2022-08-05T11:47:54.683Z,0.75
2022-08-05T11:50:22.670Z,0.98
2022-08-05T11:52:53.122Z,1.02
2022-08-05T11:55:31.710Z,0.83
2022-08-05T11:58:09.498Z,0.80
2022-08-05T12:00:41.338Z,0.70
2022-08-05T12:03:29.284Z,0.80
2022-08-05T12:06:06.172Z,1.15
2022-08-05T12:08:49.966Z,1.05
2022-08-05T12:11:28.332Z,1.00
2022-08-05T12:14:11.003Z,1.40
2022-08-05T12:16:40.536Z,0.80
2022-08-05T12:20:25.800Z,1.20
2022-08-05T12:22:00.052Z,1.20
2022-08-05T12:24:28.255Z,1.17
2022-08-05T12:26:56.979Z,1.30
2022-08-05T12:29:26.241Z,1.50
2022-08-05T12:31:56.023Z,1.42
2022-08-05T12:34:35.697Z,1.30
2022-08-05T12:37:17.547Z,1.40
2022-08-05T12:42:21.148Z,1.35
2022-08-05T12:44:49.423Z,1.23
2022-08-05T12:47:31.023Z,1.58
2022-08-05T12:50:04.529Z,1.42
2022-08-05T12:52:38.802Z,1.35
2022-08-05T12:55:23.903Z,1.45
2022-08-05T12:58:38.672Z,1.48
2022-08-05T13:02:01.160Z,1.40
2022-08-05T13:03:32.455Z,1.40
2022-08-05T13:06:01.397Z,1.17
2022-08-05T13:08:32.770Z,1.25
2022-08-05T13:11:01.369Z,1.15
2022-08-05T13:14:06.266Z,1.10
2022-08-05T13:16:17.231Z,1.00
2022-08-05T13:18:58.808Z,1.40
2022-08-05T13:21:28.549Z,1.35
2022-08-05T13:24:08.954Z,1.50
2022-08-05T13:26:36.350Z,1.50
2022-08-05T13:29:05.115Z,1.55
2022-08-05T13:32:03.826Z,1.73
2022-08-05T13:34:24.949Z,1.40
2022-08-05T13:36:54.058Z,1.45
2022-08-05T13:40:13.377Z,1.33
2022-08-05T13:42:14.537Z,1.58
2022-08-05T13:44:46.151Z,1.48
2022-08-05T13:47:34.959Z,1.40
2022-08-05T13:50:08.474Z,1.42
2022-08-05T13:52:38.393Z,1.42
2022-08-05T13:55:07.807Z,1.30
2022-08-05T13:57:50.759Z,1.48
2022-08-05T14:00:27.233Z,1.77
2022-08-05T14:02:56.797Z,1.67
2022-08-05T14:05:48.032Z,1.25
2022-08-05T14:08:19.889Z,1.90
2022-08-05T14:10:47.892Z,1.70
2022-08-05T14:13:15.394Z,1.85
2022-08-05T14:16:05.573Z,1.40
2022-08-05T14:18:29.524Z,2.10
2022-08-05T14:20:56.397Z,1.70
2022-08-05T14:23:25.819Z,1.63
2022-08-05T14:25:58.952Z,1.88
2022-08-05T14:28:30.228Z,1.58
2022-08-05T14:30:58.711Z,1.23
2022-08-05T14:33:25.835Z,1.30
2022-08-05T14:35:54.412Z,1.73
2022-08-05T14:38:31.764Z,1.27
2022-08-05T14:41:06.221Z,1.63
2022-08-05T14:43:53.896Z,1.40
2022-08-05T14:46:28.790Z,1.50
2022-08-05T14:49:06.544Z,2.13
2022-08-05T14:51:42.777Z,1.20
2022-08-05T14:59:25.458Z,1.77
2022-08-05T15:01:57.615Z,1.85
2022-08-05T15:04:27.279Z,1.40
2022-08-05T15:06:56.392Z,2.15
2022-08-05T15:09:51.864Z,1.42
2022-08-05T15:12:16.574Z,1.45
2022-08-05T15:14:50.345Z,1.83
2022-08-05T15:17:46.501Z,2.22
2022-08-05T15:20:17.206Z,1.70
2022-08-05T15:22:52.369Z,1.73
2022-08-05T15:25:41.111Z,1.50
2022-08-05T15:28:13.371Z,1.90
2022-08-05T15:30:43.400Z,1.95
2022-08-05T15:33:10.912Z,1.80
2022-08-05T15:35:45.503Z,2.00
2022-08-05T15:38:35.041Z,2.30
2022-08-05T15:41:22.859Z,2.00
2022-08-05T15:43:47.522Z,1.75
2022-08-05T15:46:15.685Z,2.28
2022-08-05T15:48:52.739Z,2.20
2022-08-05T15:52:12.568Z,1.67
2022-08-05T15:54:16.089Z,2.05
2022-08-05T15:56:43.451Z,1.80
2022-08-05T15:59:22.087Z,1.83
2022-08-05T16:01:52.806Z,2.00
2022-08-05T16:04:25.690Z,2.33
2022-08-05T16:06:55.520Z,1.98
2022-08-05T16:09:23.580Z,1.83
2022-08-05T16:11:53.172Z,1.90
2022-08-05T16:14:21.826Z,1.90
2022-08-05T16:16:49.882Z,2.00
2022-08-05T16:19:25.519Z,1.50
2022-08-05T16:22:04.669Z,1.67
2022-08-05T16:24:40.171Z,1.50
2022-08-05T16:27:09.404Z,1.80
2022-08-05T16:29:37.642Z,1.83
2022-08-05T16:32:09.823Z,1.92
2022-08-05T16:34:39.318Z,1.90
2022-08-05T16:38:15.575Z,1.42
2022-08-05T16:40:05.671Z,2.00
2022-08-05T16:42:35.305Z,1.67
2022-08-05T16:46:02.760Z,1.63
2022-08-05T16:47:55.589Z,1.90
2022-08-05T16:52:52.741Z,1.90
2022-08-05T16:55:23.301Z,1.75
2022-08-05T16:58:00.428Z,1.90
2022-08-05T17:00:34.001Z,1.38
2022-08-05T17:03:03.642Z,1.83
2022-08-05T17:05:32.125Z,1.30
2022-08-05T17:07:58.996Z,1.60
2022-08-05T17:10:26.476Z,1.30
2022-08-05T17:12:57.879Z,1.33
2022-08-05T17:15:29.490Z,1.58
2022-08-05T17:18:14.331Z,1.80
2022-08-05T17:20:42.493Z,1.58
2022-08-05T17:23:11.090Z,1.58
2022-08-05T17:25:58.141Z,1.52
2022-08-05T17:28:24.996Z,1.73
2022-08-05T17:30:55.821Z,1.73
2022-08-05T17:33:23.141Z,1.80
2022-08-05T17:36:07.465Z,1.55
2022-08-05T17:38:37.334Z,1.55
2022-08-05T17:41:07.301Z,1.63
2022-08-05T17:43:54.358Z,1.40
2022-08-05T17:46:21.345Z,1.08
2022-08-05T17:48:48.276Z,1.33
2022-08-05T17:51:21.509Z,1.35
2022-08-05T17:53:50.869Z,1.40
2022-08-05T17:56:22.723Z,0.88
2022-08-05T17:58:51.244Z,1.20
2022-08-05T18:01:19.560Z,1.10
2022-08-05T18:03:59.394Z,1.10
2022-08-05T18:06:31.944Z,0.85
2022-08-05T18:08:59.489Z,1.17
2022-08-05T18:11:33.555Z,0.90
2022-08-05T18:14:03.505Z,1.48
2022-08-05T18:16:31.826Z,1.17
2022-08-05T18:18:58.742Z,1.40
2022-08-05T18:21:26.144Z,1.42
2022-08-05T18:23:55.084Z,1.33
2022-08-05T18:26:28.991Z,1.10
2022-08-05T18:28:57.289Z,1.30
2022-08-05T18:31:24.987Z,1.20
2022-08-05T18:33:52.442Z,1.10
2022-08-05T18:36:19.578Z,1.08
2022-08-05T18:38:55.313Z,1.70
2022-08-05T18:41:55.278Z,1.40
2022-08-05T18:44:09.432Z,1.35
2022-08-05T18:46:36.312Z,1.15
2022-08-05T18:49:23.211Z,1.30
2022-08-05T18:52:16.282Z,1.30
2022-08-05T18:54:46.134Z,1.33
2022-08-05T18:57:15.375Z,1.58
2022-08-05T19:00:02.589Z,0.93
2022-08-05T19:02:29.743Z,1.27
2022-08-05T19:06:06.388Z,2.13
2022-08-05T19:07:50.218Z,1.00
2022-08-05T19:10:28.088Z,1.20
2022-08-05T19:12:57.009Z,1.25
2022-08-05T19:15:59.271Z,1.00
2022-08-05T19:18:20.844Z,1.40
2022-08-05T19:20:51.608Z,1.27
2022-08-05T19:24:03.192Z,1.13
2022-08-05T19:26:08.548Z,0.90
2022-08-05T19:28:41.839Z,1.23
2022-08-05T19:31:13.474Z,1.00
2022-08-05T19:33:48.734Z,1.58
2022-08-05T19:36:24.184Z,1.33
2022-08-05T19:38:51.344Z,1.70
2022-08-05T19:41:18.603Z,1.50
2022-08-05T19:44:06.760Z,1.30
2022-08-05T19:46:37.784Z,1.42
2022-08-05T19:49:07.670Z,1.02
2022-08-05T19:52:04.680Z,0.98
2022-08-05T19:54:31.100Z,0.90
2022-08-05T19:57:08.523Z,0.80
2022-08-05T20:00:00.901Z,1.30
2022-08-05T20:02:31.322Z,1.30
2022-08-05T20:04:59.596Z,1.13
2022-08-05T20:07:38.992Z,1.38
2022-08-05T20:10:16.460Z,1.20
2022-08-05T20:12:48.416Z,1.40
2022-08-05T20:15:48.099Z,1.38
2022-08-05T20:18:10.089Z,1.35
2022-08-05T20:20:56.744Z,1.15
2022-08-05T20:23:40.206Z,1.10
2022-08-05T20:26:16.168Z,1.17
2022-08-05T20:28:50.150Z,1.58
2022-08-05T20:31:21.862Z,1.38
2022-08-05T20:33:50.865Z,0.90
2022-08-05T20:36:18.811Z,0.90
2022-08-05T20:38:54.663Z,1.10
2022-08-05T20:41:43.452Z,1.00
2022-08-05T20:44:19.436Z,1.17
2022-08-05T20:47:03.271Z,1.25
2022-08-05T20:49:33.251Z,1.30
2022-08-05T20:52:05.341Z,1.40
2022-08-05T20:54:43.463Z,1.25
2022-08-05T20:57:24.526Z,1.10
2022-08-05T21:00:40.727Z,1.00
2022-08-05T21:03:01.372Z,1.55
2022-08-05T21:05:47.841Z,1.20
2022-08-05T21:08:15.673Z,1.23
2022-08-05T21:10:48.485Z,1.35
2022-08-05T21:13:26.036Z,1.23
2022-08-05T21:16:04.235Z,1.60
2022-08-05T21:18:31.920Z,1.80
2022-08-05T21:20:58.801Z,1.33
2022-08-05T21:23:25.725Z,1.50
2022-08-05T21:25:55.335Z,1.40
2022-08-05T21:28:23.753Z,1.42
2022-08-05T21:30:51.119Z,1.50
2022-08-05T21:33:22.464Z,1.45
2022-08-05T21:35:58.436Z,1.30
2022-08-05T21:38:27.485Z,1.58
2022-08-05T21:40:54.563Z,1.50
2022-08-05T21:43:25.070Z,1.85
2022-08-05T21:45:57.479Z,1.42
2022-08-05T21:48:27.274Z,1.20
2022-08-05T21:50:54.638Z,1.40
2022-08-05T21:53:21.822Z,1.38
2022-08-05T21:56:06.055Z,1.45
2022-08-05T21:58:42.164Z,1.10
2022-08-05T22:01:23.916Z,1.40
2022-08-05T22:03:53.630Z,1.42
2022-08-05T22:06:35.466Z,1.50
2022-08-05T22:09:14.589Z,1.60
2022-08-05T22:11:46.781Z,1.48
2022-08-05T22:14:34.667Z,1.75
2022-08-05T22:17:04.987Z,1.60
2022-08-05T22:20:03.483Z,1.17
2022-08-05T22:22:28.247Z,1.67
2022-08-05T22:28:09.703Z,1.73
2022-08-05T22:30:56.187Z,1.30
2022-08-05T22:33:57.519Z,1.38
2022-08-05T22:36:15.508Z,1.60
2022-08-05T22:38:48.006Z,1.55
2022-08-05T22:41:15.905Z,1.70
2022-08-05T22:44:02.840Z,1.67
2022-08-05T22:46:29.665Z,1.92
2022-08-05T22:48:56.926Z,1.45
2022-08-05T22:52:03.030Z,1.70
2022-08-05T22:54:10.688Z,1.60
2022-08-05T22:56:37.973Z,1.48
2022-08-05T22:59:45.246Z,1.52
2022-08-05T23:02:05.908Z,1.77
2022-08-05T23:04:34.693Z,1.67
2022-08-05T23:07:02.001Z,1.60
2022-08-05T23:09:58.141Z,1.55
2022-08-05T23:12:17.989Z,1.40
2022-08-05T23:14:45.109Z,1.52
2022-08-05T23:18:00.877Z,1.90
2022-08-05T23:20:26.687Z,1.50
2022-08-05T23:22:56.357Z,1.63
2022-08-05T23:25:51.589Z,1.70
2022-08-05T23:28:11.283Z,1.50
2022-08-05T23:30:43.928Z,2.30
2022-08-05T23:33:26.171Z,1.40
2022-08-05T23:36:09.960Z,1.45
2022-08-05T23:38:37.869Z,1.88
2022-08-05T23:41:04.913Z,1.50
2022-08-05T23:43:37.378Z,1.48
2022-08-05T23:46:20.579Z,1.60
2022-08-05T23:49:00.346Z,1.85
2022-08-05T23:51:55.344Z,1.40
2022-08-05T23:54:30.422Z,1.23
2022-08-05T23:57:04.881Z,2.05
